sensor_id;sensor_type;location;lat;lon;timestamp;pressure;altitude;pressure_sealevel;temperature;humidity
21730;BME280;11027;51.030;13.812;2023-04-10T00:01:23;101165.53;;;9.14;64.25
21730;BME280;11027;51.030;13.812;2023-04-10T00:03:49;101156.34;;;9.15;64.36
21730;BME280;11027;51.030;13.812;2023-04-10T00:06:14;101161.38;;;9.10;64.47
21730;BME280;11027;51.030;13.812;2023-04-10T00:08:40;101162.81;;;9.04;64.83
21730;BME280;11027;51.030;13.812;2023-04-10T00:11:05;101170.13;;;9.04;64.97
21730;BME280;11027;51.030;13.812;2023-04-10T00:13:31;101162.69;;;9.06;64.93
21730;BME280;11027;51.030;13.812;2023-04-10T00:15:56;101170.94;;;9.14;65.19
21730;BME280;11027;51.030;13.812;2023-04-10T00:18:22;101169.94;;;9.15;65.63
21730;BME280;11027;51.030;13.812;2023-04-10T00:20:47;101165.78;;;9.11;65.61
21730;BME280;11027;51.030;13.812;2023-04-10T00:23:13;101157.25;;;9.06;65.51
21730;BME280;11027;51.030;13.812;2023-04-10T00:25:38;101164.69;;;9.04;65.70
21730;BME280;11027;51.030;13.812;2023-04-10T00:28:03;101159.53;;;9.00;65.74
21730;BME280;11027;51.030;13.812;2023-04-10T00:30:28;101162.56;;;8.97;65.86
21730;BME280;11027;51.030;13.812;2023-04-10T00:32:54;101158.41;;;8.93;66.24
21730;BME280;11027;51.030;13.812;2023-04-10T00:35:19;101152.97;;;8.93;66.33
21730;BME280;11027;51.030;13.812;2023-04-10T00:37:44;101149.56;;;8.91;66.27
21730;BME280;11027;51.030;13.812;2023-04-10T00:40:10;101150.13;;;8.85;66.49
21730;BME280;11027;51.030;13.812;2023-04-10T00:42:35;101143.28;;;8.81;66.45
21730;BME280;11027;51.030;13.812;2023-04-10T00:45:01;101140.69;;;8.70;66.42
21730;BME280;11027;51.030;13.812;2023-04-10T00:47:26;101132.41;;;8.61;66.07
21730;BME280;11027;51.030;13.812;2023-04-10T00:49:52;101138.69;;;8.52;65.92
21730;BME280;11027;51.030;13.812;2023-04-10T00:52:17;101140.72;;;8.50;65.87
21730;BME280;11027;51.030;13.812;2023-04-10T00:54:42;101152.44;;;8.51;65.91
21730;BME280;11027;51.030;13.812;2023-04-10T00:57:08;101145.59;;;8.47;66.06
21730;BME280;11027;51.030;13.812;2023-04-10T00:59:34;101152.16;;;8.44;66.02
21730;BME280;11027;51.030;13.812;2023-04-10T01:01:59;101141.00;;;8.47;66.13
21730;BME280;11027;51.030;13.812;2023-04-10T01:04:25;101146.00;;;8.42;66.28
21730;BME280;11027;51.030;13.812;2023-04-10T01:07:06;101145.81;;;8.34;66.54
21730;BME280;11027;51.030;13.812;2023-04-10T01:09:40;101149.56;;;8.33;66.56
21730;BME280;11027;51.030;13.812;2023-04-10T01:12:33;101147.81;;;8.32;66.95
21730;BME280;11027;51.030;13.812;2023-04-10T01:15:14;101143.25;;;8.23;67.10
21730;BME280;11027;51.030;13.812;2023-04-10T01:20:31;101150.38;;;8.04;67.35
21730;BME280;11027;51.030;13.812;2023-04-10T01:30:44;101158.63;;;7.93;68.15
21730;BME280;11027;51.030;13.812;2023-04-10T01:33:12;101162.34;;;7.92;68.21
21730;BME280;11027;51.030;13.812;2023-04-10T01:35:42;101162.19;;;7.93;68.38
21730;BME280;11027;51.030;13.812;2023-04-10T01:38:09;101156.94;;;7.92;68.62
21730;BME280;11027;51.030;13.812;2023-04-10T01:40:37;101159.91;;;7.89;68.64
21730;BME280;11027;51.030;13.812;2023-04-10T01:43:05;101155.50;;;7.88;68.89
21730;BME280;11027;51.030;13.812;2023-04-10T01:45:31;101153.75;;;7.87;69.41
21730;BME280;11027;51.030;13.812;2023-04-10T01:47:57;101153.19;;;7.93;69.09
21730;BME280;11027;51.030;13.812;2023-04-10T01:50:24;101144.94;;;7.94;69.07
21730;BME280;11027;51.030;13.812;2023-04-10T01:52:53;101160.63;;;7.91;69.00
21730;BME280;11027;51.030;13.812;2023-04-10T01:55:19;101155.75;;;7.85;69.12
21730;BME280;11027;51.030;13.812;2023-04-10T01:57:46;101149.88;;;7.79;68.99
21730;BME280;11027;51.030;13.812;2023-04-10T02:00:14;101152.59;;;7.79;69.18
21730;BME280;11027;51.030;13.812;2023-04-10T02:02:40;101146.91;;;7.82;69.12
21730;BME280;11027;51.030;13.812;2023-04-10T02:05:07;101147.16;;;7.79;69.26
21730;BME280;11027;51.030;13.812;2023-04-10T02:07:38;101144.63;;;7.78;69.16
21730;BME280;11027;51.030;13.812;2023-04-10T02:10:12;101146.59;;;7.76;69.12
21730;BME280;11027;51.030;13.812;2023-04-10T02:12:45;101152.00;;;7.66;68.71
21730;BME280;11027;51.030;13.812;2023-04-10T02:15:13;101153.34;;;7.51;68.19
21730;BME280;11027;51.030;13.812;2023-04-10T02:17:40;101149.31;;;7.35;68.17
21730;BME280;11027;51.030;13.812;2023-04-10T02:20:07;101146.13;;;7.30;68.20
21730;BME280;11027;51.030;13.812;2023-04-10T02:22:33;101146.69;;;7.24;68.29
21730;BME280;11027;51.030;13.812;2023-04-10T02:24:59;101143.50;;;7.19;68.27
21730;BME280;11027;51.030;13.812;2023-04-10T02:27:32;101142.06;;;7.15;68.42
21730;BME280;11027;51.030;13.812;2023-04-10T02:29:58;101136.63;;;7.15;68.58
21730;BME280;11027;51.030;13.812;2023-04-10T02:32:23;101129.50;;;7.14;68.90
21730;BME280;11027;51.030;13.812;2023-04-10T02:34:48;101127.78;;;7.13;69.03
21730;BME280;11027;51.030;13.812;2023-04-10T02:37:14;101136.91;;;7.12;69.13
21730;BME280;11027;51.030;13.812;2023-04-10T02:39:39;101127.34;;;7.08;69.10
21730;BME280;11027;51.030;13.812;2023-04-10T02:42:05;101127.59;;;7.05;69.31
21730;BME280;11027;51.030;13.812;2023-04-10T02:44:31;101122.47;;;7.01;69.41
21730;BME280;11027;51.030;13.812;2023-04-10T02:46:56;101135.53;;;6.96;69.44
21730;BME280;11027;51.030;13.812;2023-04-10T02:49:21;101135.09;;;6.91;69.40
21730;BME280;11027;51.030;13.812;2023-04-10T02:51:46;101138.06;;;6.88;69.41
21730;BME280;11027;51.030;13.812;2023-04-10T02:54:12;101133.66;;;6.87;69.51
21730;BME280;11027;51.030;13.812;2023-04-10T02:56:37;101130.66;;;6.90;69.51
21730;BME280;11027;51.030;13.812;2023-04-10T02:59:02;101130.41;;;6.93;69.58
21730;BME280;11027;51.030;13.812;2023-04-10T03:01:27;101129.41;;;6.94;69.55
21730;BME280;11027;51.030;13.812;2023-04-10T03:03:53;101133.38;;;6.90;70.14
21730;BME280;11027;51.030;13.812;2023-04-10T03:06:18;101129.56;;;6.93;70.46
21730;BME280;11027;51.030;13.812;2023-04-10T03:08:43;101139.25;;;6.95;70.38
21730;BME280;11027;51.030;13.812;2023-04-10T03:11:08;101131.44;;;7.02;70.55
21730;BME280;11027;51.030;13.812;2023-04-10T03:13:34;101127.16;;;6.99;70.51
21730;BME280;11027;51.030;13.812;2023-04-10T03:15:59;101131.56;;;7.00;70.63
21730;BME280;11027;51.030;13.812;2023-04-10T03:18:25;101141.44;;;7.01;70.66
21730;BME280;11027;51.030;13.812;2023-04-10T03:20:50;101141.88;;;7.07;70.93
21730;BME280;11027;51.030;13.812;2023-04-10T03:23:15;101148.75;;;7.11;70.78
21730;BME280;11027;51.030;13.812;2023-04-10T03:25:40;101145.78;;;7.14;70.81
21730;BME280;11027;51.030;13.812;2023-04-10T03:28:06;101144.50;;;7.18;70.82
21730;BME280;11027;51.030;13.812;2023-04-10T03:30:31;101146.94;;;7.21;70.97
21730;BME280;11027;51.030;13.812;2023-04-10T03:32:57;101143.97;;;7.24;70.98
21730;BME280;11027;51.030;13.812;2023-04-10T03:35:22;101135.59;;;7.27;71.05
21730;BME280;11027;51.030;13.812;2023-04-10T03:37:47;101135.28;;;7.30;70.99
21730;BME280;11027;51.030;13.812;2023-04-10T03:40:12;101142.72;;;7.28;71.01
21730;BME280;11027;51.030;13.812;2023-04-10T03:42:38;101142.84;;;7.27;71.09
21730;BME280;11027;51.030;13.812;2023-04-10T03:45:03;101145.69;;;7.25;71.20
21730;BME280;11027;51.030;13.812;2023-04-10T03:47:30;101150.41;;;7.23;71.22
21730;BME280;11027;51.030;13.812;2023-04-10T03:49:56;101154.09;;;7.22;71.30
21730;BME280;11027;51.030;13.812;2023-04-10T03:52:21;101149.22;;;7.16;71.28
21730;BME280;11027;51.030;13.812;2023-04-10T03:54:46;101150.47;;;7.12;71.26
21730;BME280;11027;51.030;13.812;2023-04-10T03:57:11;101144.31;;;7.10;71.30
21730;BME280;11027;51.030;13.812;2023-04-10T03:59:37;101155.69;;;7.04;71.44
21730;BME280;11027;51.030;13.812;2023-04-10T04:02:02;101148.25;;;6.96;71.47
21730;BME280;11027;51.030;13.812;2023-04-10T04:04:27;101151.06;;;6.94;71.63
21730;BME280;11027;51.030;13.812;2023-04-10T04:06:55;101152.81;;;6.95;71.53
21730;BME280;11027;51.030;13.812;2023-04-10T04:09:20;101151.22;;;6.93;71.74
21730;BME280;11027;51.030;13.812;2023-04-10T04:11:45;101154.06;;;6.91;71.88
21730;BME280;11027;51.030;13.812;2023-04-10T04:14:11;101161.06;;;6.94;71.77
21730;BME280;11027;51.030;13.812;2023-04-10T04:16:36;101159.19;;;6.94;71.76
21730;BME280;11027;51.030;13.812;2023-04-10T04:19:01;101159.94;;;6.96;71.69
21730;BME280;11027;51.030;13.812;2023-04-10T04:21:26;101166.78;;;7.00;71.84
21730;BME280;11027;51.030;13.812;2023-04-10T04:23:52;101164.56;;;7.06;71.77
21730;BME280;11027;51.030;13.812;2023-04-10T04:26:17;101162.03;;;7.14;71.81
21730;BME280;11027;51.030;13.812;2023-04-10T04:28:42;101160.91;;;7.16;71.77
21730;BME280;11027;51.030;13.812;2023-04-10T04:31:07;101172.75;;;7.15;71.81
21730;BME280;11027;51.030;13.812;2023-04-10T04:33:33;101174.56;;;7.15;71.82
21730;BME280;11027;51.030;13.812;2023-04-10T04:35:58;101167.47;;;7.14;71.78
21730;BME280;11027;51.030;13.812;2023-04-10T04:38:23;101177.56;;;7.12;72.13
21730;BME280;11027;51.030;13.812;2023-04-10T04:40:48;101180.00;;;7.15;71.98
21730;BME280;11027;51.030;13.812;2023-04-10T04:43:14;101173.19;;;7.20;71.81
21730;BME280;11027;51.030;13.812;2023-04-10T04:45:39;101188.34;;;7.23;71.74
21730;BME280;11027;51.030;13.812;2023-04-10T04:48:04;101170.94;;;7.26;71.80
21730;BME280;11027;51.030;13.812;2023-04-10T04:50:30;101175.53;;;7.25;71.62
21730;BME280;11027;51.030;13.812;2023-04-10T04:52:55;101177.50;;;7.23;71.65
21730;BME280;11027;51.030;13.812;2023-04-10T04:55:20;101179.75;;;7.18;71.79
21730;BME280;11027;51.030;13.812;2023-04-10T04:57:45;101173.31;;;7.19;71.92
21730;BME280;11027;51.030;13.812;2023-04-10T05:00:11;101171.63;;;7.18;71.98
21730;BME280;11027;51.030;13.812;2023-04-10T05:02:36;101180.28;;;7.12;72.00
21730;BME280;11027;51.030;13.812;2023-04-10T05:05:01;101182.25;;;7.10;72.19
21730;BME280;11027;51.030;13.812;2023-04-10T05:07:27;101184.50;;;7.05;72.34
21730;BME280;11027;51.030;13.812;2023-04-10T05:09:53;101182.81;;;7.04;72.12
21730;BME280;11027;51.030;13.812;2023-04-10T05:12:18;101187.50;;;7.01;72.35
21730;BME280;11027;51.030;13.812;2023-04-10T05:14:44;101181.34;;;6.99;72.39
21730;BME280;11027;51.030;13.812;2023-04-10T05:17:09;101190.19;;;7.01;72.41
21730;BME280;11027;51.030;13.812;2023-04-10T05:19:34;101189.47;;;6.99;72.30
21730;BME280;11027;51.030;13.812;2023-04-10T05:21:59;101189.47;;;6.99;72.22
21730;BME280;11027;51.030;13.812;2023-04-10T05:24:25;101188.34;;;7.02;72.03
21730;BME280;11027;51.030;13.812;2023-04-10T05:26:50;101185.50;;;7.04;72.23
21730;BME280;11027;51.030;13.812;2023-04-10T05:29:15;101190.19;;;7.01;72.28
21730;BME280;11027;51.030;13.812;2023-04-10T05:31:41;101189.59;;;6.98;72.54
21730;BME280;11027;51.030;13.812;2023-04-10T05:34:06;101189.59;;;6.98;72.63
21730;BME280;11027;51.030;13.812;2023-04-10T05:36:31;101193.88;;;7.00;72.68
21730;BME280;11027;51.030;13.812;2023-04-10T05:38:56;101193.63;;;7.04;72.81
21730;BME280;11027;51.030;13.812;2023-04-10T05:41:22;101191.53;;;7.07;72.84
21730;BME280;11027;51.030;13.812;2023-04-10T05:43:47;101185.41;;;7.15;72.90
21730;BME280;11027;51.030;13.812;2023-04-10T05:46:12;101190.72;;;7.16;73.22
21730;BME280;11027;51.030;13.812;2023-04-10T05:48:38;101194.03;;;7.20;73.37
21730;BME280;11027;51.030;13.812;2023-04-10T05:51:03;101198.50;;;7.31;73.43
21730;BME280;11027;51.030;13.812;2023-04-10T05:53:30;101185.00;;;7.40;73.20
21730;BME280;11027;51.030;13.812;2023-04-10T05:55:56;101181.63;;;7.48;73.11
21730;BME280;11027;51.030;13.812;2023-04-10T05:58:23;101183.06;;;7.52;72.92
21730;BME280;11027;51.030;13.812;2023-04-10T06:00:48;101184.50;;;7.56;72.89
21730;BME280;11027;51.030;13.812;2023-04-10T06:03:14;101183.09;;;7.62;72.91
21730;BME280;11027;51.030;13.812;2023-04-10T06:05:39;101188.25;;;7.65;72.84
21730;BME280;11027;51.030;13.812;2023-04-10T06:08:05;101185.53;;;7.65;72.68
21730;BME280;11027;51.030;13.812;2023-04-10T06:10:31;101189.97;;;7.66;72.69
21730;BME280;11027;51.030;13.812;2023-04-10T06:12:56;101184.25;;;7.69;72.74
21730;BME280;11027;51.030;13.812;2023-04-10T06:15:22;101183.41;;;7.69;72.85
21730;BME280;11027;51.030;13.812;2023-04-10T06:17:47;101178.81;;;7.69;72.83
21730;BME280;11027;51.030;13.812;2023-04-10T06:20:12;101178.81;;;7.69;72.93
21730;BME280;11027;51.030;13.812;2023-04-10T06:22:37;101180.56;;;7.70;73.08
21730;BME280;11027;51.030;13.812;2023-04-10T06:25:03;101182.00;;;7.74;73.15
21730;BME280;11027;51.030;13.812;2023-04-10T06:27:29;101178.28;;;7.75;73.19
21730;BME280;11027;51.030;13.812;2023-04-10T06:29:55;101180.00;;;7.76;73.33
21730;BME280;11027;51.030;13.812;2023-04-10T06:32:20;101168.88;;;7.79;73.44
21730;BME280;11027;51.030;13.812;2023-04-10T06:34:45;101164.88;;;7.84;73.51
21730;BME280;11027;51.030;13.812;2023-04-10T06:37:11;101169.31;;;7.85;73.67
21730;BME280;11027;51.030;13.812;2023-04-10T06:39:36;101170.91;;;7.87;73.65
21730;BME280;11027;51.030;13.812;2023-04-10T06:42:01;101172.50;;;7.90;73.83
21730;BME280;11027;51.030;13.812;2023-04-10T06:44:27;101164.91;;;7.93;73.82
21730;BME280;11027;51.030;13.812;2023-04-10T06:46:52;101171.22;;;7.94;73.82
21730;BME280;11027;51.030;13.812;2023-04-10T06:49:18;101167.22;;;7.98;73.65
21730;BME280;11027;51.030;13.812;2023-04-10T06:51:43;101165.66;;;8.05;73.57
21730;BME280;11027;51.030;13.812;2023-04-10T06:54:09;101165.81;;;8.13;73.22
21730;BME280;11027;51.030;13.812;2023-04-10T06:56:35;101167.81;;;8.21;72.92
21730;BME280;11027;51.030;13.812;2023-04-10T06:59:00;101167.25;;;8.27;72.79
21730;BME280;11027;51.030;13.812;2023-04-10T07:01:25;101169.00;;;8.28;72.72
21730;BME280;11027;51.030;13.812;2023-04-10T07:03:50;101169.28;;;8.35;72.58
21730;BME280;11027;51.030;13.812;2023-04-10T07:06:16;101162.28;;;8.42;72.48
21730;BME280;11027;51.030;13.812;2023-04-10T07:08:41;101158.28;;;8.46;72.29
21730;BME280;11027;51.030;13.812;2023-04-10T07:11:06;101157.00;;;8.50;72.30
21730;BME280;11027;51.030;13.812;2023-04-10T07:13:31;101154.00;;;8.53;72.34
21730;BME280;11027;51.030;13.812;2023-04-10T07:15:59;101159.88;;;8.58;72.06
21730;BME280;11027;51.030;13.812;2023-04-10T07:18:24;101155.31;;;8.69;71.92
21730;BME280;11027;51.030;13.812;2023-04-10T07:20:50;101151.84;;;8.76;71.60
21730;BME280;11027;51.030;13.812;2023-04-10T07:23:15;101158.56;;;8.82;71.58
21730;BME280;11027;51.030;13.812;2023-04-10T07:25:41;101157.84;;;8.90;71.29
21730;BME280;11027;51.030;13.812;2023-04-10T07:28:06;101149.25;;;8.94;71.17
21730;BME280;11027;51.030;13.812;2023-04-10T07:30:32;101155.81;;;9.01;70.76
21730;BME280;11027;51.030;13.812;2023-04-10T07:32:57;101151.50;;;9.09;70.53
21730;BME280;11027;51.030;13.812;2023-04-10T07:35:22;101138.34;;;9.14;70.44
21730;BME280;11027;51.030;13.812;2023-04-10T07:37:47;101136.03;;;9.19;70.25
21730;BME280;11027;51.030;13.812;2023-04-10T07:40:16;101130.28;;;9.22;70.10
21730;BME280;11027;51.030;13.812;2023-04-10T07:42:41;101136.28;;;9.26;69.73
21730;BME280;11027;51.030;13.812;2023-04-10T07:45:07;101134.44;;;9.26;69.40
21730;BME280;11027;51.030;13.812;2023-04-10T07:47:32;101126.84;;;9.30;69.34
21730;BME280;11027;51.030;13.812;2023-04-10T07:49:57;101130.81;;;9.35;69.19
21730;BME280;11027;51.030;13.812;2023-04-10T07:52:23;101126.47;;;9.43;69.57
21730;BME280;11027;51.030;13.812;2023-04-10T07:54:48;101125.59;;;9.52;69.10
21730;BME280;11027;51.030;13.812;2023-04-10T07:57:13;101126.69;;;9.59;69.04
21730;BME280;11027;51.030;13.812;2023-04-10T07:59:38;101121.34;;;9.67;68.76
21730;BME280;11027;51.030;13.812;2023-04-10T08:02:04;101118.91;;;9.74;68.68
21730;BME280;11027;51.030;13.812;2023-04-10T08:04:29;101121.16;;;9.78;68.37
21730;BME280;11027;51.030;13.812;2023-04-10T08:06:54;101117.69;;;9.86;67.97
21730;BME280;11027;51.030;13.812;2023-04-10T08:09:20;101118.75;;;9.93;67.90
21730;BME280;11027;51.030;13.812;2023-04-10T08:11:45;101120.72;;;10.01;67.67
21730;BME280;11027;51.030;13.812;2023-04-10T08:14:10;101114.66;;;10.07;67.70
21730;BME280;11027;51.030;13.812;2023-04-10T08:16:37;101109.75;;;10.11;67.40
21730;BME280;11027;51.030;13.812;2023-04-10T08:19:03;101111.03;;;10.16;67.42
21730;BME280;11027;51.030;13.812;2023-04-10T08:21:29;101104.41;;;10.19;67.65
21730;BME280;11027;51.030;13.812;2023-04-10T08:23:57;101111.09;;;10.25;67.41
21730;BME280;11027;51.030;13.812;2023-04-10T08:26:24;101104.31;;;10.29;67.20
21730;BME280;11027;51.030;13.812;2023-04-10T08:28:50;101105.06;;;10.31;67.13
21730;BME280;11027;51.030;13.812;2023-04-10T08:31:17;101101.72;;;10.37;67.26
21730;BME280;11027;51.030;13.812;2023-04-10T08:33:42;101103.81;;;10.43;67.28
21730;BME280;11027;51.030;13.812;2023-04-10T08:36:08;101096.00;;;10.48;67.13
21730;BME280;11027;51.030;13.812;2023-04-10T08:38:34;101104.56;;;10.53;67.00
21730;BME280;11027;51.030;13.812;2023-04-10T08:40:59;101090.78;;;10.55;66.81
21730;BME280;11027;51.030;13.812;2023-04-10T08:43:25;101093.38;;;10.56;66.79
21730;BME280;11027;51.030;13.812;2023-04-10T08:45:51;101086.41;;;10.62;66.70
21730;BME280;11027;51.030;13.812;2023-04-10T08:48:18;101084.91;;;10.68;66.76
21730;BME280;11027;51.030;13.812;2023-04-10T08:50:44;101080.88;;;10.72;66.47
21730;BME280;11027;51.030;13.812;2023-04-10T08:53:12;101083.97;;;10.77;66.45
21730;BME280;11027;51.030;13.812;2023-04-10T08:55:41;101075.31;;;10.81;66.39
21730;BME280;11027;51.030;13.812;2023-04-10T08:58:08;101075.00;;;10.85;66.35
21730;BME280;11027;51.030;13.812;2023-04-10T09:00:35;101075.53;;;10.88;66.30
21730;BME280;11027;51.030;13.812;2023-04-10T09:03:03;101072.53;;;10.99;66.60
21730;BME280;11027;51.030;13.812;2023-04-10T09:05:29;101062.66;;;11.07;66.83
21730;BME280;11027;51.030;13.812;2023-04-10T09:07:54;101061.72;;;11.16;66.60
21730;BME280;11027;51.030;13.812;2023-04-10T09:10:20;101058.50;;;11.20;66.37
21730;BME280;11027;51.030;13.812;2023-04-10T09:12:46;101064.16;;;11.27;65.98
21730;BME280;11027;51.030;13.812;2023-04-10T09:15:12;101053.59;;;11.32;65.60
21730;BME280;11027;51.030;13.812;2023-04-10T09:17:53;101052.94;;;11.38;64.83
21730;BME280;11027;51.030;13.812;2023-04-10T09:20:20;101052.97;;;11.47;64.73
21730;BME280;11027;51.030;13.812;2023-04-10T09:22:46;101054.34;;;11.51;64.28
21730;BME280;11027;51.030;13.812;2023-04-10T09:25:31;101048.75;;;11.60;64.30
21730;BME280;11027;51.030;13.812;2023-04-10T09:28:05;101054.94;;;11.71;64.11
21730;BME280;11027;51.030;13.812;2023-04-10T09:30:39;101046.59;;;11.80;63.95
21730;BME280;11027;51.030;13.812;2023-04-10T09:33:22;101043.53;;;11.84;63.77
21730;BME280;11027;51.030;13.812;2023-04-10T09:35:48;101045.25;;;11.85;63.61
21730;BME280;11027;51.030;13.812;2023-04-10T09:38:17;101046.63;;;11.89;63.59
21730;BME280;11027;51.030;13.812;2023-04-10T09:40:44;101035.72;;;11.89;63.42
21730;BME280;11027;51.030;13.812;2023-04-10T09:43:25;101027.91;;;11.94;63.04
21730;BME280;11027;51.030;13.812;2023-04-10T09:45:52;101029.25;;;11.98;62.97
21730;BME280;11027;51.030;13.812;2023-04-10T09:48:18;101021.41;;;12.03;62.34
21730;BME280;11027;51.030;13.812;2023-04-10T09:50:43;101015.44;;;12.16;62.43
21730;BME280;11027;51.030;13.812;2023-04-10T09:53:11;101009.47;;;12.29;62.07
21730;BME280;11027;51.030;13.812;2023-04-10T09:55:37;101006.72;;;12.37;61.59
21730;BME280;11027;51.030;13.812;2023-04-10T09:58:03;101006.03;;;12.43;60.47
21730;BME280;11027;51.030;13.812;2023-04-10T10:00:29;100990.66;;;12.50;60.23
21730;BME280;11027;51.030;13.812;2023-04-10T10:02:56;101009.41;;;12.61;59.09
21730;BME280;11027;51.030;13.812;2023-04-10T10:05:23;100997.47;;;12.71;57.67
21730;BME280;11027;51.030;13.812;2023-04-10T10:07:54;100990.59;;;12.83;57.32
21730;BME280;11027;51.030;13.812;2023-04-10T10:10:20;100982.50;;;12.98;57.16
21730;BME280;11027;51.030;13.812;2023-04-10T10:12:51;100979.50;;;13.16;57.01
21730;BME280;11027;51.030;13.812;2023-04-10T10:15:50;100981.88;;;13.35;56.84
21730;BME280;11027;51.030;13.812;2023-04-10T10:18:24;100976.59;;;13.57;56.43
21730;BME280;11027;51.030;13.812;2023-04-10T10:20:52;100977.88;;;13.69;55.66
21730;BME280;11027;51.030;13.812;2023-04-10T10:23:18;100974.06;;;13.78;55.69
21730;BME280;11027;51.030;13.812;2023-04-10T10:25:44;100966.16;;;13.84;55.40
21730;BME280;11027;51.030;13.812;2023-04-10T10:28:12;100959.81;;;13.83;55.20
21730;BME280;11027;51.030;13.812;2023-04-10T10:30:38;100955.66;;;13.87;55.16
21730;BME280;11027;51.030;13.812;2023-04-10T10:33:05;100958.72;;;13.92;55.40
21730;BME280;11027;51.030;13.812;2023-04-10T10:35:33;100945.06;;;14.07;55.49
21730;BME280;11027;51.030;13.812;2023-04-10T10:37:59;100939.44;;;14.24;54.79
21730;BME280;11027;51.030;13.812;2023-04-10T10:40:30;100935.84;;;14.38;54.40
21730;BME280;11027;51.030;13.812;2023-04-10T10:43:10;100928.91;;;14.50;53.48
21730;BME280;11027;51.030;13.812;2023-04-10T10:48:04;100920.78;;;14.72;53.22
21730;BME280;11027;51.030;13.812;2023-04-10T10:50:51;100925.91;;;14.75;52.89
21730;BME280;11027;51.030;13.812;2023-04-10T10:53:34;100912.38;;;14.73;52.31
21730;BME280;11027;51.030;13.812;2023-04-10T10:56:35;100906.50;;;14.76;52.95
21730;BME280;11027;51.030;13.812;2023-04-10T10:59:00;100909.81;;;14.72;52.61
21730;BME280;11027;51.030;13.812;2023-04-10T11:01:26;100903.41;;;14.65;52.25
21730;BME280;11027;51.030;13.812;2023-04-10T11:03:51;100907.94;;;14.57;51.77
21730;BME280;11027;51.030;13.812;2023-04-10T11:06:18;100896.84;;;14.51;51.79
21730;BME280;11027;51.030;13.812;2023-04-10T11:08:45;100896.38;;;14.47;51.95
21730;BME280;11027;51.030;13.812;2023-04-10T11:11:20;100884.63;;;14.53;51.99
21730;BME280;11027;51.030;13.812;2023-04-10T11:16:23;100885.56;;;14.90;52.15
21730;BME280;11027;51.030;13.812;2023-04-10T11:19:07;100882.19;;;14.88;50.29
21730;BME280;11027;51.030;13.812;2023-04-10T11:21:33;100872.63;;;14.84;49.84
21730;BME280;11027;51.030;13.812;2023-04-10T11:29:00;100849.69;;;15.07;50.84
21730;BME280;11027;51.030;13.812;2023-04-10T11:31:25;100853.44;;;15.20;51.01
21730;BME280;11027;51.030;13.812;2023-04-10T11:36:20;100855.84;;;15.30;48.80
21730;BME280;11027;51.030;13.812;2023-04-10T11:38:59;100847.63;;;15.30;48.57
21730;BME280;11027;51.030;13.812;2023-04-10T11:41:31;100847.25;;;15.33;47.94
21730;BME280;11027;51.030;13.812;2023-04-10T11:44:01;100842.84;;;15.39;47.89
21730;BME280;11027;51.030;13.812;2023-04-10T11:46:27;100835.16;;;15.49;47.85
21730;BME280;11027;51.030;13.812;2023-04-10T11:48:58;100838.63;;;15.58;47.14
21730;BME280;11027;51.030;13.812;2023-04-10T11:51:24;100825.78;;;15.65;46.75
21730;BME280;11027;51.030;13.812;2023-04-10T11:54:12;100830.13;;;15.74;46.51
21730;BME280;11027;51.030;13.812;2023-04-10T11:56:41;100823.22;;;15.85;45.39
21730;BME280;11027;51.030;13.812;2023-04-10T11:59:07;100822.66;;;15.90;43.37
21730;BME280;11027;51.030;13.812;2023-04-10T12:01:41;100813.84;;;16.01;43.67
21730;BME280;11027;51.030;13.812;2023-04-10T12:04:14;100811.22;;;16.21;43.69
21730;BME280;11027;51.030;13.812;2023-04-10T12:06:48;100801.78;;;16.37;43.62
21730;BME280;11027;51.030;13.812;2023-04-10T12:09:15;100803.72;;;16.43;42.92
21730;BME280;11027;51.030;13.812;2023-04-10T12:12:07;100794.56;;;16.71;43.58
21730;BME280;11027;51.030;13.812;2023-04-10T12:14:37;100791.28;;;16.95;43.40
21730;BME280;11027;51.030;13.812;2023-04-10T12:17:05;100800.63;;;17.08;42.66
21730;BME280;11027;51.030;13.812;2023-04-10T12:19:32;100795.56;;;17.18;41.75
21730;BME280;11027;51.030;13.812;2023-04-10T12:21:58;100787.09;;;17.33;41.40
21730;BME280;11027;51.030;13.812;2023-04-10T12:24:59;100790.50;;;17.48;40.30
21730;BME280;11027;51.030;13.812;2023-04-10T12:27:26;100789.84;;;17.53;38.97
21730;BME280;11027;51.030;13.812;2023-04-10T12:29:53;100784.56;;;17.58;38.98
21730;BME280;11027;51.030;13.812;2023-04-10T12:32:19;100787.97;;;17.73;38.79
21730;BME280;11027;51.030;13.812;2023-04-10T12:34:52;100774.63;;;17.90;39.11
21730;BME280;11027;51.030;13.812;2023-04-10T12:37:18;100771.84;;;18.10;39.32
21730;BME280;11027;51.030;13.812;2023-04-10T12:39:44;100776.00;;;18.33;38.78
21730;BME280;11027;51.030;13.812;2023-04-10T12:42:16;100769.63;;;18.39;37.77
21730;BME280;11027;51.030;13.812;2023-04-10T12:44:57;100771.09;;;18.48;37.92
21730;BME280;11027;51.030;13.812;2023-04-10T12:47:24;100767.44;;;18.54;37.70
21730;BME280;11027;51.030;13.812;2023-04-10T12:52:31;100755.44;;;18.87;36.53
21730;BME280;11027;51.030;13.812;2023-04-10T12:55:14;100751.78;;;19.25;36.49
21730;BME280;11027;51.030;13.812;2023-04-10T12:57:41;100742.34;;;20.27;35.95
21730;BME280;11027;51.030;13.812;2023-04-10T13:00:08;100751.25;;;20.96;33.13
21730;BME280;11027;51.030;13.812;2023-04-10T13:02:35;100734.56;;;21.68;31.72
21730;BME280;11027;51.030;13.812;2023-04-10T13:05:02;100732.41;;;22.87;30.36
21730;BME280;11027;51.030;13.812;2023-04-10T13:07:27;100725.50;;;24.25;28.82
21730;BME280;11027;51.030;13.812;2023-04-10T13:09:52;100717.00;;;25.67;27.88
21730;BME280;11027;51.030;13.812;2023-04-10T13:12:18;100717.59;;;26.96;27.13